Flight Track Log - Related Links

Times and Time Zones

All times are in EDT time to prevent confusion due to time zone crossing. See the SWA854 flight status page for this flight to view local times or setup timezone preferences in your user account.

Time Position Orientation Groundspeed Altitude Reporting Facility
EDT Latitude Longitude Course Direction KTS MPH feet Rate Location/Type
Sun 04:42:38 PM 42.9167 -78.7500 174° South 159 183 2,000  Level Buffalo TRACON
Sun 04:43:33 PM 42.8833 -78.7667 200° South 193 222 3,900 2,054 Climbing Buffalo TRACON
Sun 04:44:29 PM 42.8214 -78.7647 179° South 240 276 5,800 3,102 Climbing Cleveland Center
Sun 04:45:31 PM 42.7364 -78.7461 171° South 286 329 10,000 3,290 Climbing Cleveland Center
Sun 04:46:33 PM 42.6556 -78.7311 172° South 320 368 12,600 2,758 Climbing Cleveland Center
Sun 04:47:35 PM 42.5567 -78.7103 171° South 358 412 15,700 3,290 Climbing Cleveland Center
Sun 04:48:00 PM 42.3666 -78.6500 174° South  Level FlightAware Approximate
Sun 04:48:37 PM 42.4306 -78.6861 172° South 379 436 19,400  Level Cleveland Center
Sun 04:49:39 PM 42.3228 -78.6636 171° South 389 448 22,800 1,756 Climbing Cleveland Center
Sun 04:50:40 PM 42.2128 -78.6403 171° South 400 460 23,000 98 Climbing Cleveland Center
Sun 04:51:42 PM 42.1103 -78.5314 142° Southeast 438 504 23,000  Level Cleveland Center
Sun 04:52:44 PM 42.0225 -78.4200 137° Southeast 433 498 23,000  Level Cleveland Center
Sun 04:53:46 PM 41.9356 -78.3069 136° Southeast 434 499 23,000  Level Cleveland Center
Sun 04:54:48 PM 41.8478 -78.1956 137° Southeast 434 499 23,000  Level Cleveland Center
Sun 04:55:50 PM 41.7600 -78.0847 137° Southeast 434 499 23,000  Level Cleveland Center
Sun 04:56:52 PM 41.6725 -77.9736 136° Southeast 434 499 23,000  Level Cleveland Center
Sun 04:57:54 PM 41.5669 -77.8417 137° Southeast 434 499 23,000  Level Cleveland Center
Sun 04:58:55 PM 41.4806 -77.7314 136° Southeast 434 499 23,000  Level Cleveland Center
Sun 04:59:57 PM 41.3922 -77.6225 137° Southeast 434 499 23,000 -387 Level Cleveland Center
Sun 05:00:59 PM 41.3039 -77.5131 137° Southeast 434 499 22,200 -871 Descending Cleveland Center
Sun 05:02:01 PM 41.2161 -77.4047 137° Southeast 434 499 21,200 -968 Descending Cleveland Center
Sun 05:03:03 PM 41.1300 -77.2978 137° Southeast 431 496 20,200 -1,065 Descending Cleveland Center
Sun 05:04:05 PM 41.0292 -77.1736 137° Southeast 418 481 19,000 -1,073 Descending Cleveland Center
Sun 05:05:06 PM 40.9461 -77.0717 137° Southeast 411 473 18,000 -878 Descending Cleveland Center
Sun 05:06:08 PM 40.8636 -76.9722 138° Southeast 408 470 17,200 -871 Descending Cleveland Center
Sun 05:07:10 PM 40.7814 -76.8736 138° Southeast 404 465 16,200 -968 Descending Cleveland Center
Sun 05:08:12 PM 40.7008 -76.7764 138° Southeast 398 458 15,200 -558 Descending Cleveland Center
Sun 05:09:19 PM 40.6081 -76.6675 138° Southeast 395 455 15,000 -94 Descending New York Center
Sun 05:10:19 PM 40.5283 -76.5517 132° Southeast 401 461 15,000  Level New York Center
Sun 05:11:19 PM 40.4494 -76.4603 139° Southeast 389 448 15,000 -197 Level New York Center
Sun 05:12:21 PM 40.3511 -76.4686 184° South 340 391 14,600 -700 Descending New York Center
Sun 05:13:19 PM 40.2628 -76.4858 188° South 347 399 13,600 -945 Descending New York Center
Sun 05:15:06 PM 40.0833 -76.5167 187° South 347 399 12,000 -575 Descending Potomac TRACON
Sun 05:16:06 PM 39.9833 -76.5333 187° South 337 388 12,000  Level Potomac TRACON
Sun 05:17:07 PM 39.9000 -76.5500 189° South 342 394 12,000 -250 Level Potomac TRACON
Sun 05:18:06 PM 39.8000 -76.5667 187° South 338 389 11,500 -789 Descending Potomac TRACON
Sun 05:19:01 PM 39.7333 -76.6167 210° Southwest 330 380 10,500 -1,043 Descending Potomac TRACON
Sun 05:20:01 PM 39.6500 -76.6667 205° Southwest 306 352 9,500 -1,100 Descending Potomac TRACON
Sun 05:21:01 PM 39.5667 -76.7000 197° South 300 345 8,300 -1,250 Descending Potomac TRACON
Sun 05:22:01 PM 39.5000 -76.6833 169° South 321 369 7,000 -1,200 Descending Potomac TRACON
Sun 05:23:01 PM 39.4333 -76.6000 136° Southeast 310 357 5,900 -1,050 Descending Potomac TRACON
Sun 05:24:01 PM 39.3833 -76.5167 128° Southeast 291 335 4,900 -942 Descending Potomac TRACON
Sun 05:25:02 PM 39.3167 -76.4833 159° South 274 315 4,000 -942 Descending Potomac TRACON
Sun 05:26:02 PM 39.2500 -76.4667 169° South 270 311 3,000 -526 Descending Potomac TRACON
Sun 05:26:56 PM 39.1833 -76.4333 159° South 245 282 3,000  Level Potomac TRACON
Sun 05:28:02 PM 39.1333 -76.5000 226° Southwest 217 250 3,000 -143 Level Potomac TRACON
Sun 05:29:02 PM 39.1000 -76.5333 218° Southwest 177 204 2,700 -550 Descending Potomac TRACON
Sun 05:30:02 PM 39.1000 -76.6000 270° West 174 200 1,900 -793 Descending Potomac TRACON
Sun 05:31:03 PM 39.1333 -76.6333 322° Northwest 139 160 1,100 -793 Descending Potomac TRACON
Sun 05:32:03 PM 39.1500 -76.6500 322° Northwest 138 159 300 -800 Descending Potomac TRACON

Login

Don't have an account? Register now (free) for customized features, flight alerts, and more!